createdAt,value
2023-04-10T00:00:34.326Z,156.98
2023-04-10T00:01:34.446Z,155.72
2023-04-10T00:02:34.578Z,153.20
2023-04-10T00:03:34.625Z,153.00
2023-04-10T00:04:34.596Z,150.53
2023-04-10T00:05:34.689Z,149.83
2023-04-10T00:06:34.729Z,150.49
2023-04-10T00:07:34.789Z,154.51
2023-04-10T00:08:34.832Z,150.78
2023-04-10T00:09:34.914Z,149.57
2023-04-10T00:10:34.959Z,148.81
2023-04-10T00:11:35.027Z,150.02
2023-04-10T00:12:35.083Z,151.12
2023-04-10T00:13:35.124Z,149.61
2023-04-10T00:14:35.189Z,150.34
2023-04-10T00:15:35.251Z,149.66
2023-04-10T00:16:35.414Z,152.02
2023-04-10T00:17:35.390Z,150.96
2023-04-10T00:18:35.440Z,149.56
2023-04-10T00:19:35.527Z,147.66
2023-04-10T00:20:35.579Z,149.90
2023-04-10T00:21:35.628Z,148.31
2023-04-10T00:22:35.706Z,149.63
2023-04-10T00:23:36.675Z,148.93
2023-04-10T00:24:35.825Z,148.63
2023-04-10T00:25:35.890Z,149.79
2023-04-10T00:26:35.974Z,145.14
2023-04-10T00:27:35.999Z,145.13
2023-04-10T00:28:36.072Z,146.13
2023-04-10T00:29:36.096Z,145.13
2023-04-10T00:30:36.193Z,146.33
2023-04-10T00:31:36.315Z,144.90
2023-04-10T00:32:36.378Z,143.86
2023-04-10T00:33:36.364Z,143.49
2023-04-10T00:34:36.436Z,143.37
2023-04-10T00:35:36.489Z,143.12
2023-04-10T00:36:36.568Z,146.18
2023-04-10T00:37:36.657Z,143.00
2023-04-10T00:38:36.694Z,140.87
2023-04-10T00:39:36.717Z,142.30
2023-04-10T00:40:36.790Z,142.15
2023-04-10T00:41:36.881Z,143.31
2023-04-10T00:42:36.878Z,141.20
2023-04-10T00:43:36.926Z,141.92
2023-04-10T00:44:36.981Z,147.15
2023-04-10T00:45:37.074Z,144.12
2023-04-10T00:46:37.151Z,140.47
2023-04-10T00:47:37.204Z,141.18
2023-04-10T00:48:37.193Z,143.47
2023-04-10T00:49:37.232Z,141.80
2023-04-10T00:50:37.262Z,140.38
2023-04-10T00:51:37.358Z,141.06
2023-04-10T00:52:37.394Z,138.39
2023-04-10T00:53:37.457Z,137.73
2023-04-10T00:54:37.528Z,141.22
2023-04-10T00:55:37.556Z,139.78
2023-04-10T00:56:37.637Z,143.77
2023-04-10T00:57:37.653Z,137.62
2023-04-10T00:58:37.728Z,140.52
2023-04-10T00:59:37.797Z,141.95
2023-04-10T01:00:37.843Z,141.36
2023-04-10T01:01:38.017Z,140.13
2023-04-10T01:02:38.155Z,139.44
2023-04-10T01:03:38.175Z,143.34
2023-04-10T01:04:38.194Z,139.57
2023-04-10T01:05:38.100Z,142.25
2023-04-10T01:06:38.174Z,143.46
2023-04-10T01:07:38.197Z,139.87
2023-04-10T01:08:38.273Z,142.08
2023-04-10T01:09:38.322Z,144.80
2023-04-10T01:10:38.387Z,141.82
2023-04-10T01:11:38.399Z,143.36
2023-04-10T01:12:38.484Z,145.47
2023-04-10T01:13:38.513Z,144.74
2023-04-10T01:14:38.572Z,140.92
2023-04-10T01:15:38.626Z,140.92
2023-04-10T01:16:38.702Z,141.57
2023-04-10T01:17:38.791Z,140.07
2023-04-10T01:18:38.837Z,140.14
2023-04-10T01:19:38.913Z,140.40
2023-04-10T01:20:38.895Z,142.51
2023-04-10T01:21:39.043Z,139.60
2023-04-10T01:22:39.075Z,141.82
2023-04-10T01:23:39.117Z,142.72
2023-04-10T01:24:39.173Z,141.28
2023-04-10T01:25:39.255Z,135.00
2023-04-10T01:26:39.315Z,137.22
2023-04-10T01:27:39.359Z,137.70
2023-04-10T01:28:39.404Z,137.65
2023-04-10T01:29:39.485Z,138.16
2023-04-10T01:30:39.510Z,137.23
2023-04-10T01:31:39.610Z,142.70
2023-04-10T01:32:39.701Z,141.07
2023-04-10T01:33:39.705Z,139.54
2023-04-10T01:34:39.833Z,140.61
2023-04-10T01:35:39.861Z,137.16
2023-04-10T01:36:39.909Z,135.79
2023-04-10T01:37:39.938Z,135.41
2023-04-10T01:38:40.008Z,141.76
2023-04-10T01:39:40.065Z,137.93
2023-04-10T01:40:40.120Z,137.88
2023-04-10T01:41:40.199Z,138.69
2023-04-10T01:42:40.237Z,138.58
2023-04-10T01:43:40.318Z,139.24
2023-04-10T01:44:40.403Z,139.58
2023-04-10T01:45:40.455Z,138.40
2023-04-10T01:46:40.559Z,141.25
2023-04-10T01:47:40.639Z,143.19
2023-04-10T01:48:40.611Z,141.12
2023-04-10T01:49:40.701Z,141.31
2023-04-10T01:50:40.742Z,139.18
2023-04-10T01:51:40.851Z,143.79
2023-04-10T01:52:40.876Z,141.00
2023-04-10T01:53:40.948Z,142.62
2023-04-10T01:54:40.977Z,143.93
2023-04-10T01:55:41.084Z,144.59
2023-04-10T01:56:41.120Z,145.91
2023-04-10T01:57:41.190Z,145.44
2023-04-10T01:58:41.256Z,145.97
2023-04-10T01:59:41.315Z,145.60
2023-04-10T02:00:41.386Z,146.28
2023-04-10T02:01:41.514Z,144.62
2023-04-10T02:02:41.563Z,145.99
2023-04-10T02:03:41.728Z,143.02
2023-04-10T02:04:42.354Z,146.81
2023-04-10T02:05:41.688Z,144.35
2023-04-10T02:06:41.746Z,143.47
2023-04-10T02:07:41.813Z,144.19
2023-04-10T02:08:41.865Z,148.60
2023-04-10T02:09:41.921Z,147.33
2023-04-10T02:10:41.971Z,148.60
2023-04-10T02:11:42.024Z,150.31
2023-04-10T02:12:42.106Z,147.02
2023-04-10T02:13:42.166Z,147.03
2023-04-10T02:14:42.218Z,149.88
2023-04-10T02:15:42.294Z,148.17
2023-04-10T02:16:42.342Z,149.15
2023-04-10T02:17:42.397Z,144.20
2023-04-10T02:18:42.463Z,147.62
2023-04-10T02:19:42.511Z,147.67
2023-04-10T02:20:42.532Z,148.53
2023-04-10T02:21:42.606Z,144.08
2023-04-10T02:22:42.667Z,147.30
2023-04-10T02:23:42.733Z,144.00
2023-04-10T02:24:42.812Z,148.82
2023-04-10T02:25:42.866Z,142.71
2023-04-10T02:26:42.928Z,143.90
2023-04-10T02:27:42.951Z,142.29
2023-04-10T02:28:43.028Z,141.65
2023-04-10T02:29:43.096Z,141.86
2023-04-10T02:30:43.131Z,142.73
2023-04-10T02:31:43.313Z,144.35
2023-04-10T02:32:43.285Z,143.96
2023-04-10T02:33:43.286Z,142.90
2023-04-10T02:34:43.373Z,142.54
2023-04-10T02:35:43.434Z,140.56
2023-04-10T02:36:43.518Z,140.08
2023-04-10T02:37:43.533Z,140.37
2023-04-10T02:38:43.659Z,137.80
2023-04-10T02:39:43.720Z,141.07
2023-04-10T02:40:43.756Z,140.33
2023-04-10T02:41:43.917Z,139.90
2023-04-10T02:42:43.878Z,139.14
2023-04-10T02:43:43.938Z,141.37
2023-04-10T02:44:43.986Z,147.72
2023-04-10T02:45:44.054Z,154.52
2023-04-10T02:46:44.171Z,160.45
2023-04-10T02:47:44.229Z,158.06
2023-04-10T02:48:44.222Z,157.66
2023-04-10T02:49:44.293Z,157.57
2023-04-10T02:50:44.364Z,158.81
2023-04-10T02:51:44.430Z,160.39
2023-04-10T02:52:44.499Z,157.99
2023-04-10T02:53:44.519Z,157.20
2023-04-10T02:54:52.213Z,153.02
2023-04-10T02:55:44.530Z,153.32
2023-04-10T02:56:44.583Z,153.41
2023-04-10T02:57:44.565Z,153.03
2023-04-10T02:58:44.547Z,152.70
2023-04-10T02:59:44.561Z,149.73
2023-04-10T03:00:44.521Z,149.01
2023-04-10T03:01:44.591Z,146.63
2023-04-10T03:02:44.747Z,145.82
2023-04-10T03:03:44.559Z,145.12
2023-04-10T03:04:44.517Z,143.51
2023-04-10T03:05:44.498Z,144.45
2023-04-10T03:06:44.508Z,144.04
2023-04-10T03:07:44.481Z,142.41
2023-04-10T03:08:44.463Z,141.72
2023-04-10T03:09:44.472Z,142.69
2023-04-10T03:10:44.438Z,144.66
2023-04-10T03:11:44.542Z,141.01
2023-04-10T03:12:44.570Z,138.96
2023-04-10T03:13:44.588Z,141.21
2023-04-10T03:14:44.645Z,139.42
2023-04-10T03:15:44.723Z,142.54
2023-04-10T03:16:44.740Z,140.11
2023-04-10T03:17:44.779Z,141.99
2023-04-10T03:18:44.808Z,142.68
2023-04-10T03:19:44.873Z,140.23
2023-04-10T03:20:45.336Z,141.50
2023-04-10T03:21:44.949Z,140.99
2023-04-10T03:22:44.964Z,141.13
2023-04-10T03:23:45.002Z,144.10
2023-04-10T03:24:45.047Z,145.37
2023-04-10T03:25:45.086Z,140.99
2023-04-10T03:26:45.169Z,143.58
2023-04-10T03:27:45.181Z,147.81
2023-04-10T03:28:45.226Z,146.98
2023-04-10T03:29:45.276Z,149.29
2023-04-10T03:30:45.323Z,147.41
2023-04-10T03:31:45.393Z,147.35
2023-04-10T03:32:45.382Z,149.49
2023-04-10T03:33:45.507Z,147.13
2023-04-10T03:34:45.496Z,147.27
2023-04-10T03:35:45.533Z,150.52
2023-04-10T03:36:45.568Z,146.51
2023-04-10T03:37:45.585Z,146.09
2023-04-10T03:38:45.665Z,148.23
2023-04-10T03:39:45.683Z,151.45
2023-04-10T03:40:45.706Z,151.50
2023-04-10T03:41:45.777Z,145.81
2023-04-10T03:42:53.439Z,147.40
2023-04-10T03:43:45.826Z,147.75
2023-04-10T03:44:45.835Z,149.44
2023-04-10T03:45:45.801Z,150.76
2023-04-10T03:46:45.795Z,151.02
2023-04-10T03:47:45.864Z,155.99
2023-04-10T03:48:45.732Z,155.66
2023-04-10T03:49:45.782Z,152.63
2023-04-10T03:50:45.733Z,156.65
2023-04-10T03:51:45.772Z,157.94
2023-04-10T03:52:45.738Z,153.59
2023-04-10T03:53:45.722Z,152.49
2023-04-10T03:54:45.720Z,155.40
2023-04-10T03:55:45.718Z,156.23
2023-04-10T03:56:45.736Z,157.57
2023-04-10T03:57:45.719Z,154.57
2023-04-10T03:58:45.752Z,156.23
2023-04-10T03:59:45.791Z,161.79
2023-04-10T04:00:45.828Z,157.36
2023-04-10T04:01:46.009Z,156.25
2023-04-10T04:02:46.254Z,157.64
2023-04-10T04:03:46.056Z,158.70
2023-04-10T04:04:46.166Z,162.00
2023-04-10T04:05:46.084Z,157.23
2023-04-10T04:06:46.137Z,160.35
2023-04-10T04:07:46.175Z,159.29
2023-04-10T04:08:46.207Z,161.08
2023-04-10T04:09:46.231Z,161.85
2023-04-10T04:10:46.290Z,160.18
2023-04-10T04:11:46.376Z,161.80
2023-04-10T04:12:46.398Z,162.48
2023-04-10T04:13:46.454Z,163.10
2023-04-10T04:14:46.481Z,163.48
2023-04-10T04:15:46.516Z,165.37
2023-04-10T04:16:46.663Z,161.35
2023-04-10T04:17:46.708Z,165.43
2023-04-10T04:18:46.678Z,166.50
2023-04-10T04:19:46.711Z,166.63
2023-04-10T04:20:46.743Z,162.41
2023-04-10T04:21:46.822Z,165.21
2023-04-10T04:22:46.854Z,164.57
2023-04-10T04:23:46.895Z,167.73
2023-04-10T04:24:46.956Z,168.53
2023-04-10T04:25:46.997Z,169.50
2023-04-10T04:26:47.049Z,165.68
2023-04-10T04:27:47.097Z,174.60
2023-04-10T04:28:47.128Z,169.50
2023-04-10T04:29:47.179Z,167.26
2023-04-10T04:30:47.229Z,172.46
2023-04-10T04:31:47.325Z,171.47
2023-04-10T04:32:47.332Z,169.34
2023-04-10T04:33:47.367Z,169.92
2023-04-10T04:34:47.384Z,175.24
2023-04-10T04:35:47.436Z,168.31
2023-04-10T04:36:47.497Z,169.55
2023-04-10T04:37:47.561Z,169.64
2023-04-10T04:38:47.585Z,172.29
2023-04-10T04:39:47.613Z,173.47
2023-04-10T04:40:48.260Z,175.46
2023-04-10T04:41:47.721Z,171.96
2023-04-10T04:42:47.769Z,168.06
2023-04-10T04:43:47.795Z,173.02
2023-04-10T04:44:47.833Z,170.95
2023-04-10T04:45:47.881Z,168.42
2023-04-10T04:46:47.905Z,168.45
2023-04-10T04:47:47.990Z,168.24
2023-04-10T04:48:47.988Z,173.05
2023-04-10T04:49:48.044Z,170.60
2023-04-10T04:50:48.036Z,169.49
2023-04-10T04:51:48.131Z,174.04
2023-04-10T04:52:48.183Z,171.97
2023-04-10T04:53:48.203Z,173.84
2023-04-10T04:54:48.264Z,175.99
2023-04-10T04:55:48.278Z,172.69
2023-04-10T04:56:48.345Z,168.70
2023-04-10T04:57:48.376Z,169.99
2023-04-10T04:58:48.370Z,170.66
2023-04-10T04:59:48.457Z,167.83
2023-04-10T05:02:07.482Z,25.00
2023-04-10T05:03:07.505Z,25.00
2023-04-10T05:04:07.437Z,25.00
2023-04-10T05:05:07.293Z,25.00
2023-04-10T05:06:07.321Z,25.00
2023-04-10T05:07:07.343Z,29.62
2023-04-10T05:08:07.345Z,31.55
2023-04-10T05:09:07.399Z,30.95
2023-04-10T05:10:07.299Z,31.79
2023-04-10T05:11:07.299Z,32.66
2023-04-10T05:12:07.320Z,34.05
2023-04-10T05:13:07.243Z,34.95
2023-04-10T05:14:07.271Z,28.91
2023-04-10T05:15:07.283Z,34.97
2023-04-10T05:16:07.296Z,30.81
2023-04-10T05:17:07.278Z,26.81
2023-04-10T05:18:07.344Z,31.30
2023-04-10T05:19:07.273Z,29.41
2023-04-10T05:20:07.270Z,29.31
2023-04-10T05:21:07.224Z,32.97
2023-04-10T05:22:07.202Z,30.05
2023-04-10T05:23:07.237Z,37.48
2023-04-10T05:24:07.205Z,31.45
2023-04-10T05:25:07.210Z,31.37
2023-04-10T05:26:07.204Z,32.32
2023-04-10T05:27:07.207Z,26.58
2023-04-10T05:28:07.150Z,29.95
2023-04-10T05:29:07.180Z,29.64
2023-04-10T05:30:07.228Z,31.81
2023-04-10T05:31:07.572Z,34.53
2023-04-10T05:32:07.158Z,32.02
2023-04-10T05:33:07.160Z,35.80
2023-04-10T05:34:07.095Z,34.09
2023-04-10T05:35:07.164Z,29.68
2023-04-10T05:36:07.270Z,27.98
2023-04-10T05:37:07.583Z,29.69
2023-04-10T05:38:08.441Z,33.87
2023-04-10T05:39:07.416Z,31.37
2023-04-10T05:40:07.742Z,31.60
2023-04-10T05:41:07.422Z,31.20
2023-04-10T05:42:07.519Z,29.13
2023-04-10T05:43:08.129Z,28.10
2023-04-10T05:44:07.878Z,33.23
2023-04-10T05:45:07.614Z,34.39
2023-04-10T05:47:34.184Z,25.00
2023-04-10T05:48:26.456Z,25.00
2023-04-10T05:49:26.461Z,25.00
2023-04-10T05:50:26.913Z,25.00
2023-04-10T05:51:26.472Z,25.00
2023-04-10T05:52:26.475Z,25.00
2023-04-10T05:53:26.457Z,25.00
2023-04-10T05:54:26.432Z,32.34
2023-04-10T05:55:26.419Z,30.37
2023-04-10T05:56:26.413Z,28.34
2023-04-10T05:57:26.426Z,26.85
2023-04-10T05:58:26.402Z,30.34
2023-04-10T05:59:26.425Z,27.80
2023-04-10T06:00:26.401Z,28.41
2023-04-10T06:01:26.383Z,27.16
2023-04-10T06:02:26.612Z,31.22
2023-04-10T06:03:26.601Z,34.26
2023-04-10T06:04:26.711Z,31.57
2023-04-10T06:05:26.539Z,29.86
2023-04-10T06:06:26.575Z,32.74
2023-04-10T06:07:26.574Z,33.92
2023-04-10T06:08:26.616Z,33.13
2023-04-10T06:09:26.693Z,27.37
2023-04-10T06:10:26.713Z,31.02
2023-04-10T06:11:26.722Z,30.61
2023-04-10T06:12:26.772Z,29.81
2023-04-10T06:13:26.816Z,26.45
2023-04-10T06:14:26.837Z,28.73
2023-04-10T06:15:26.935Z,26.43
2023-04-10T06:16:26.981Z,26.85
2023-04-10T06:17:27.033Z,31.15
2023-04-10T06:18:27.076Z,33.91
2023-04-10T06:19:27.072Z,31.13
2023-04-10T06:20:27.131Z,32.94
2023-04-10T06:21:27.205Z,29.70
2023-04-10T06:22:27.219Z,32.68
2023-04-10T06:23:27.253Z,35.11
2023-04-10T06:24:27.330Z,31.56
2023-04-10T06:25:27.426Z,30.99
2023-04-10T06:26:27.368Z,34.00
2023-04-10T06:27:27.438Z,29.28
2023-04-10T06:28:27.516Z,25.44
2023-04-10T06:29:27.546Z,32.87
2023-04-10T06:30:27.615Z,25.00
2023-04-10T06:31:27.633Z,29.79
2023-04-10T06:32:27.678Z,29.81
2023-04-10T06:33:27.725Z,30.47
2023-04-10T06:34:27.784Z,28.35
2023-04-10T06:35:28.709Z,31.66
2023-04-10T06:36:27.875Z,28.38
2023-04-10T06:37:27.868Z,26.59
2023-04-10T06:38:27.941Z,29.11
2023-04-10T06:39:27.944Z,28.49
2023-04-10T06:40:28.037Z,32.78
2023-04-10T06:41:28.099Z,30.38
2023-04-10T06:42:28.131Z,32.87
2023-04-10T06:43:28.163Z,27.28
2023-04-10T06:44:28.172Z,32.44
2023-04-10T06:45:28.261Z,31.31
2023-04-10T06:46:28.287Z,32.71
2023-04-10T06:47:28.314Z,28.54
2023-04-10T06:48:28.402Z,32.66
2023-04-10T06:49:28.385Z,33.13
2023-04-10T06:50:28.445Z,31.18
2023-04-10T06:51:28.487Z,29.95
2023-04-10T06:52:28.494Z,33.50
2023-04-10T06:53:28.528Z,29.67
2023-04-10T06:54:28.592Z,33.40
2023-04-10T06:55:28.648Z,29.02
2023-04-10T06:56:28.728Z,35.66
2023-04-10T06:57:28.761Z,36.07
2023-04-10T06:58:28.785Z,33.23
2023-04-10T06:59:28.782Z,31.99
2023-04-10T07:00:28.906Z,36.17
2023-04-10T07:01:29.009Z,39.04
2023-04-10T07:02:29.076Z,33.37
2023-04-10T07:03:29.029Z,33.19
2023-04-10T07:04:29.033Z,33.00
2023-04-10T07:05:29.140Z,33.19
2023-04-10T07:06:29.150Z,36.51
2023-04-10T07:07:29.177Z,33.80
2023-04-10T07:08:29.269Z,30.50
2023-04-10T07:09:29.252Z,31.96
2023-04-10T07:10:29.325Z,29.80
2023-04-10T07:11:29.340Z,32.14
2023-04-10T07:12:29.419Z,30.76
2023-04-10T07:13:29.459Z,31.35
2023-04-10T07:14:29.493Z,30.53
2023-04-10T07:15:29.522Z,30.11
2023-04-10T07:16:29.635Z,33.42
2023-04-10T07:17:29.635Z,29.29
2023-04-10T07:18:29.662Z,32.17
2023-04-10T07:19:29.703Z,34.01
2023-04-10T07:20:29.784Z,32.48
2023-04-10T07:21:29.812Z,31.55
2023-04-10T07:22:29.814Z,31.35
2023-04-10T07:23:29.865Z,30.76
2023-04-10T07:24:29.953Z,32.40
2023-04-10T07:25:29.993Z,33.04
2023-04-10T07:26:30.005Z,26.77
2023-04-10T07:27:30.057Z,33.89
2023-04-10T07:28:30.120Z,32.12
2023-04-10T07:29:30.143Z,32.11
2023-04-10T07:30:30.168Z,31.81
2023-04-10T07:31:30.292Z,34.03
2023-04-10T07:32:30.412Z,30.99
2023-04-10T07:33:30.335Z,26.82
2023-04-10T07:34:30.339Z,28.55
2023-04-10T07:35:30.389Z,27.11
2023-04-10T07:36:30.417Z,27.31
2023-04-10T07:37:30.452Z,29.15
2023-04-10T07:38:30.536Z,25.72
2023-04-10T07:39:30.533Z,27.15
2023-04-10T07:40:30.567Z,27.19
2023-04-10T07:41:30.616Z,27.68
2023-04-10T07:42:30.647Z,25.00
2023-04-10T07:43:30.688Z,26.75
2023-04-10T07:44:31.654Z,27.75
2023-04-10T07:45:30.811Z,29.00
2023-04-10T07:46:30.794Z,25.97
2023-04-10T07:47:30.860Z,28.54
2023-04-10T07:48:30.873Z,27.62
2023-04-10T07:49:30.880Z,28.72
2023-04-10T07:50:30.944Z,32.57
2023-04-10T07:51:30.937Z,26.34
2023-04-10T07:52:30.997Z,26.93
2023-04-10T07:53:30.990Z,28.05
2023-04-10T07:54:31.010Z,27.08
2023-04-10T07:55:31.017Z,26.49
2023-04-10T07:56:31.078Z,27.68
2023-04-10T07:57:31.126Z,28.39
2023-04-10T07:58:31.147Z,29.69
2023-04-10T07:59:31.223Z,27.85
2023-04-10T08:00:31.226Z,26.34
2023-04-10T08:01:31.288Z,27.38
2023-04-10T08:02:31.383Z,29.07
2023-04-10T08:03:31.496Z,27.09
2023-04-10T08:04:31.468Z,25.47
2023-04-10T08:05:31.503Z,26.42
2023-04-10T08:06:31.426Z,25.00
2023-04-10T08:07:31.440Z,26.34
2023-04-10T08:08:31.454Z,29.07
2023-04-10T08:09:31.487Z,26.71
2023-04-10T08:10:31.540Z,26.82
2023-04-10T08:11:31.531Z,28.00
2023-04-10T08:12:31.592Z,26.97
2023-04-10T08:13:31.611Z,28.31
2023-04-10T08:14:31.627Z,27.03
2023-04-10T08:15:31.676Z,26.00
2023-04-10T08:16:31.732Z,25.21
2023-04-10T08:17:31.717Z,27.06
2023-04-10T08:18:31.735Z,30.74
2023-04-10T08:19:31.745Z,31.90
2023-04-10T08:20:31.789Z,29.21
2023-04-10T08:21:32.050Z,30.08
2023-04-10T08:22:31.868Z,29.78
2023-04-10T08:23:31.867Z,26.75
2023-04-10T08:24:31.873Z,25.00
2023-04-10T08:25:31.907Z,25.64
2023-04-10T08:26:31.957Z,26.42
2023-04-10T08:27:32.009Z,30.30
2023-04-10T08:28:32.004Z,31.06
2023-04-10T08:29:32.032Z,26.14
2023-04-10T08:30:32.148Z,26.86
2023-04-10T08:31:32.205Z,26.99
2023-04-10T08:32:32.130Z,25.18
2023-04-10T08:33:32.156Z,26.77
2023-04-10T08:34:32.178Z,26.23
2023-04-10T08:35:32.175Z,29.35
2023-04-10T08:36:32.212Z,35.19
2023-04-10T08:37:32.225Z,26.46
2023-04-10T08:38:32.253Z,28.66
2023-04-10T08:39:32.286Z,31.16
2023-04-10T08:40:32.248Z,31.47
2023-04-10T08:41:32.303Z,29.19
2023-04-10T08:42:33.926Z,25.31
2023-04-10T08:43:32.346Z,25.14
2023-04-10T08:44:32.374Z,26.09
2023-04-10T08:45:32.361Z,25.00
2023-04-10T08:46:32.442Z,25.00
2023-04-10T08:47:32.476Z,27.09
2023-04-10T08:48:32.426Z,28.49
2023-04-10T08:49:32.457Z,31.83
2023-04-10T08:50:32.434Z,30.78
2023-04-10T08:51:32.498Z,32.08
2023-04-10T08:52:32.543Z,29.56
2023-04-10T08:53:32.546Z,25.00
2023-04-10T08:54:32.518Z,28.85
2023-04-10T08:55:32.573Z,28.46
2023-04-10T08:56:32.587Z,27.75
2023-04-10T08:57:32.625Z,28.64
2023-04-10T08:58:32.582Z,27.86
2023-04-10T08:59:32.624Z,31.22
2023-04-10T09:00:32.680Z,29.33
2023-04-10T09:01:32.681Z,30.42
2023-04-10T09:02:32.809Z,32.36
2023-04-10T09:03:32.837Z,29.97
2023-04-10T09:04:32.764Z,29.26
2023-04-10T09:05:32.716Z,29.40
2023-04-10T09:06:32.743Z,26.15
2023-04-10T09:07:32.800Z,26.43
2023-04-10T09:08:32.820Z,27.61
2023-04-10T09:09:32.783Z,25.00
2023-04-10T09:10:32.826Z,27.66
2023-04-10T09:11:32.828Z,25.00
2023-04-10T09:12:32.865Z,26.77
2023-04-10T09:13:32.865Z,29.56
2023-04-10T09:14:32.885Z,31.01
2023-04-10T09:15:32.920Z,34.38
2023-04-10T09:16:32.966Z,26.50
2023-04-10T09:17:32.965Z,27.69
2023-04-10T09:18:32.968Z,32.50
2023-04-10T09:19:32.982Z,30.63
2023-04-10T09:20:33.005Z,29.12
2023-04-10T09:21:33.030Z,24.17
2023-04-10T09:22:33.064Z,25.47
2023-04-10T09:23:33.066Z,27.07
2023-04-10T09:24:33.882Z,29.96
2023-04-10T09:25:33.149Z,30.95
2023-04-10T09:26:33.126Z,32.13
2023-04-10T09:27:33.174Z,33.81
2023-04-10T09:28:33.146Z,30.91
2023-04-10T09:29:33.267Z,28.51
2023-04-10T09:30:33.150Z,27.78
2023-04-10T09:31:33.213Z,28.45
2023-04-10T09:32:33.219Z,25.87
2023-04-10T09:33:33.217Z,25.97
2023-04-10T09:34:33.249Z,27.48
2023-04-10T09:35:33.227Z,28.35
2023-04-10T09:36:33.306Z,28.85
2023-04-10T09:37:33.322Z,28.48
2023-04-10T09:38:33.314Z,28.28
2023-04-10T09:39:33.284Z,25.00
2023-04-10T09:40:33.332Z,26.07
2023-04-10T09:41:33.288Z,26.23
2023-04-10T09:42:33.350Z,28.41
2023-04-10T09:43:33.368Z,27.13
2023-04-10T09:44:33.410Z,26.82
2023-04-10T09:45:33.408Z,26.00
2023-04-10T09:46:33.414Z,27.77
2023-04-10T09:47:33.491Z,27.84
2023-04-10T09:48:33.408Z,25.92
2023-04-10T09:49:33.442Z,27.49
2023-04-10T09:50:36.329Z,26.28
2023-04-10T09:51:33.414Z,26.41
2023-04-10T09:52:34.477Z,26.39
2023-04-10T09:53:33.404Z,25.91
2023-04-10T09:54:33.437Z,25.25
2023-04-10T09:55:33.433Z,21.70
2023-04-10T09:56:33.380Z,27.44
2023-04-10T09:57:33.360Z,26.94
2023-04-10T09:58:33.377Z,26.52
2023-04-10T09:59:33.383Z,26.00
2023-04-10T10:00:33.375Z,29.05
2023-04-10T10:01:33.365Z,31.97
2023-04-10T10:02:33.474Z,30.48
2023-04-10T10:03:33.353Z,29.33
2023-04-10T10:04:33.354Z,32.89
2023-04-10T10:05:33.332Z,29.12
2023-04-10T10:06:33.349Z,26.90
2023-04-10T10:07:33.315Z,25.90
2023-04-10T10:08:33.306Z,28.17
2023-04-10T10:09:33.356Z,28.51
2023-04-10T10:10:33.313Z,27.27
2023-04-10T10:11:33.292Z,27.00
2023-04-10T10:12:33.284Z,26.05
2023-04-10T10:13:33.251Z,28.71
2023-04-10T10:14:33.298Z,29.23
2023-04-10T10:15:33.280Z,32.16
2023-04-10T10:16:33.315Z,29.99
2023-04-10T10:17:33.290Z,34.81
2023-04-10T10:18:33.282Z,33.73
2023-04-10T10:19:33.277Z,35.75
2023-04-10T10:20:34.642Z,34.24
2023-04-10T10:21:33.195Z,35.82
2023-04-10T10:22:33.171Z,29.63
2023-04-10T10:23:33.180Z,33.54
2023-04-10T10:24:33.213Z,34.38
2023-04-10T10:25:33.166Z,35.73
2023-04-10T10:26:33.210Z,35.01
2023-04-10T10:27:33.167Z,33.89
2023-04-10T10:28:33.160Z,35.49
2023-04-10T10:29:33.145Z,34.40
2023-04-10T10:30:33.179Z,32.62
2023-04-10T10:31:33.190Z,37.95
2023-04-10T10:32:33.203Z,36.50
2023-04-10T10:33:33.176Z,41.05
2023-04-10T10:34:33.192Z,40.73
2023-04-10T10:35:33.207Z,44.67
2023-04-10T10:36:33.295Z,40.40
2023-04-10T10:37:33.304Z,41.89
2023-04-10T10:38:33.245Z,44.00
2023-04-10T10:39:33.290Z,42.70
2023-04-10T10:40:33.319Z,40.82
2023-04-10T10:41:33.286Z,41.48
2023-04-10T10:42:33.281Z,43.41
2023-04-10T10:43:33.285Z,45.99
2023-04-10T10:44:33.333Z,49.17
2023-04-10T10:45:33.347Z,48.61
2023-04-10T10:46:33.310Z,46.69
2023-04-10T10:47:33.379Z,50.01
2023-04-10T10:48:33.381Z,50.62
2023-04-10T10:49:33.388Z,48.80
2023-04-10T10:50:33.397Z,48.83
2023-04-10T10:51:33.413Z,48.87
2023-04-10T10:52:33.404Z,50.87
2023-04-10T10:53:33.435Z,54.20
2023-04-10T10:54:33.468Z,52.13
2023-04-10T10:55:33.432Z,53.79
2023-04-10T10:56:33.481Z,57.18
2023-04-10T10:57:33.496Z,56.36
2023-04-10T10:58:33.523Z,56.01
2023-04-10T10:59:33.567Z,61.05
2023-04-10T11:00:33.537Z,65.63
2023-04-10T11:01:33.734Z,70.61
2023-04-10T11:02:33.641Z,71.01
2023-04-10T11:03:33.732Z,71.09
2023-04-10T11:04:33.602Z,72.51
2023-04-10T11:05:33.639Z,73.97
2023-04-10T11:06:33.624Z,76.80
2023-04-10T11:07:33.626Z,76.23
2023-04-10T11:08:33.730Z,75.77
2023-04-10T11:09:33.690Z,75.05
2023-04-10T11:10:35.140Z,75.15
2023-04-10T11:11:33.700Z,73.96
2023-04-10T11:12:33.670Z,73.90
2023-04-10T11:13:33.725Z,70.35
2023-04-10T11:14:33.722Z,73.44
2023-04-10T11:15:33.712Z,66.90
2023-04-10T11:16:33.769Z,66.88
2023-04-10T11:17:33.759Z,68.16
2023-04-10T11:18:33.754Z,66.07
2023-04-10T11:19:33.800Z,60.55
2023-04-10T11:20:33.761Z,64.07
2023-04-10T11:21:33.766Z,59.11
2023-04-10T11:22:33.823Z,61.41
2023-04-10T11:23:33.837Z,60.78
2023-04-10T11:24:34.904Z,57.22
2023-04-10T11:25:33.850Z,63.05
2023-04-10T11:26:33.862Z,58.53
2023-04-10T11:27:33.866Z,62.70
2023-04-10T11:28:33.933Z,61.81
2023-04-10T11:29:33.916Z,64.39
2023-04-10T11:30:33.960Z,60.66
2023-04-10T11:31:33.958Z,59.79
2023-04-10T11:32:34.000Z,62.12
2023-04-10T11:33:34.010Z,59.72
2023-04-10T11:34:34.013Z,59.09
2023-04-10T11:35:34.090Z,60.95
2023-04-10T11:36:34.018Z,61.01
2023-04-10T11:37:34.034Z,60.33
2023-04-10T11:38:34.050Z,62.72
2023-04-10T11:39:34.048Z,66.39
2023-04-10T11:40:34.098Z,66.45
2023-04-10T11:41:34.064Z,69.31
2023-04-10T11:42:34.103Z,67.56
2023-04-10T11:43:34.133Z,64.65
2023-04-10T11:44:34.189Z,65.36
2023-04-10T11:45:34.282Z,59.33
2023-04-10T11:46:34.444Z,54.58
2023-04-10T11:47:34.216Z,59.05
2023-04-10T11:48:34.213Z,58.50
2023-04-10T11:49:34.251Z,60.51
2023-04-10T11:50:34.273Z,58.71
2023-04-10T11:51:34.300Z,60.01
2023-04-10T11:52:34.279Z,65.36
2023-04-10T11:53:34.284Z,59.41
2023-04-10T11:54:34.389Z,60.54
2023-04-10T11:55:34.398Z,58.99
2023-04-10T11:56:34.378Z,64.48
2023-04-10T11:57:34.350Z,69.67
2023-04-10T11:58:34.382Z,72.93
2023-04-10T11:59:34.482Z,68.59
2023-04-10T12:00:34.402Z,71.40
2023-04-10T12:01:34.482Z,74.80
2023-04-10T12:02:34.517Z,72.23
2023-04-10T12:03:34.602Z,71.64
2023-04-10T12:04:34.653Z,71.65
2023-04-10T12:05:34.482Z,77.18
2023-04-10T12:06:34.474Z,76.19
2023-04-10T12:07:34.485Z,71.22
2023-04-10T12:08:34.502Z,72.68
2023-04-10T12:09:34.518Z,71.28
2023-04-10T12:10:34.564Z,74.24
2023-04-10T12:11:34.567Z,77.42
2023-04-10T12:12:34.546Z,75.93
2023-04-10T12:13:34.646Z,76.19
2023-04-10T12:14:34.915Z,80.91
2023-04-10T12:15:34.659Z,82.44
2023-04-10T12:16:34.633Z,80.37
2023-04-10T12:17:34.714Z,81.41
2023-04-10T12:18:34.669Z,82.30
2023-04-10T12:19:34.731Z,79.89
2023-04-10T12:20:34.730Z,83.77
2023-04-10T12:21:34.745Z,83.83
2023-04-10T12:22:34.753Z,86.69
2023-04-10T12:23:34.755Z,86.06
2023-04-10T12:24:34.755Z,88.04
2023-04-10T12:25:34.782Z,87.97
2023-04-10T12:26:34.779Z,88.29
2023-04-10T12:27:34.786Z,86.15
2023-04-10T12:28:34.807Z,87.49
2023-04-10T12:29:34.845Z,81.62
2023-04-10T12:30:34.858Z,87.04
2023-04-10T12:31:35.016Z,83.58
2023-04-10T12:32:34.886Z,81.34
2023-04-10T12:33:34.904Z,82.23
2023-04-10T12:34:34.931Z,82.61
2023-04-10T12:35:34.954Z,77.92
2023-04-10T12:36:35.013Z,78.07
2023-04-10T12:37:34.958Z,76.77
2023-04-10T12:38:35.014Z,73.97
2023-04-10T12:39:34.991Z,70.37
2023-04-10T12:40:35.056Z,74.60
2023-04-10T12:41:35.074Z,79.51
2023-04-10T12:42:35.094Z,80.80
2023-04-10T12:43:35.065Z,81.28
2023-04-10T12:44:35.122Z,83.39
2023-04-10T12:45:35.093Z,84.69
2023-04-10T12:46:35.176Z,85.15